YCBG weather

Hobart Cambridge Airport
Tasmania, Australia

Public forecast

Using degrees Celsius for public forecast. Weather courtesy of forecast.io.

METAR (pilot weather report)

Closest report is Hobart International Airport, 1.6 nm (3.0 km) ESE. Retrieved 2018/09/23 21:00 UTC (28 minutes ago):

YMHB 232100Z 29005KT 9999 FEW030 BKN050 07/M02 Q1033 RF00.0/001.2

TAF (pilot weather forecast)

Closest forecast is Hobart International Airport, 1.6 nm (3.0 km) ESE. Retrieved 2018/09/23 18:36 UTC (3 hours ago):

TAF YMHB 231710Z 2318/2418 31008KT 9999 BKN045 FM232300 23012KT 9999 BKN045 FM241200 28006KT 9999 BKN040